createdAt,value
2019-05-02T00:02:28.845Z,6.50
2019-05-02T00:04:55.779Z,6.50
2019-05-02T00:07:23.639Z,6.50
2019-05-02T00:09:51.367Z,6.40
2019-05-02T00:12:19.452Z,6.40
2019-05-02T00:14:47.454Z,6.40
2019-05-02T00:17:15.565Z,6.40
2019-05-02T00:19:45.189Z,6.30
2019-05-02T00:22:17.198Z,6.30
2019-05-02T00:24:42.396Z,6.30
2019-05-02T00:27:10.155Z,6.30
2019-05-02T00:29:37.854Z,6.30
2019-05-02T00:32:05.617Z,6.40
2019-05-02T00:34:33.391Z,6.40
2019-05-02T00:37:01.028Z,6.50
2019-05-02T00:39:28.716Z,6.50
2019-05-02T00:41:56.802Z,6.60
2019-05-02T00:44:24.430Z,6.60
2019-05-02T00:46:53.916Z,6.70
2019-05-02T00:49:21.576Z,6.70
2019-05-02T00:51:49.275Z,6.70
2019-05-02T00:54:19.260Z,6.80
2019-05-02T00:56:46.424Z,6.80
2019-05-02T00:59:14.070Z,6.90
2019-05-02T01:02:05.321Z,6.90
2019-05-02T01:04:35.752Z,6.90
2019-05-02T01:07:04.134Z,6.90
2019-05-02T01:09:32.507Z,7.00
2019-05-02T01:12:03.148Z,7.00
2019-05-02T01:14:31.867Z,7.00
2019-05-02T01:16:59.227Z,7.00
2019-05-02T01:19:26.898Z,7.10
2019-05-02T01:21:54.588Z,7.10
2019-05-02T01:24:22.285Z,7.10
2019-05-02T01:27:04.532Z,7.10
2019-05-02T01:29:39.032Z,7.10
2019-05-02T01:32:19.796Z,7.10
2019-05-02T01:34:54.354Z,7.00
2019-05-02T01:37:41.035Z,7.00
2019-05-02T01:40:12.917Z,6.90
2019-05-02T01:42:40.022Z,6.90
2019-05-02T01:45:11.214Z,6.90
2019-05-02T01:47:37.115Z,6.90
2019-05-02T01:50:05.016Z,6.90
2019-05-02T01:52:32.668Z,6.90
2019-05-02T01:55:00.360Z,6.90
2019-05-02T01:57:27.983Z,6.90
2019-05-02T01:59:55.609Z,6.90
2019-05-02T02:02:23.303Z,6.90
2019-05-02T02:04:52.169Z,7.00
2019-05-02T02:07:21.234Z,7.00
2019-05-02T02:09:49.098Z,7.00
2019-05-02T02:12:16.839Z,7.00
2019-05-02T02:14:48.036Z,7.00
2019-05-02T02:17:15.473Z,7.00
2019-05-02T02:19:48.989Z,7.10
2019-05-02T02:22:28.648Z,7.10
2019-05-02T02:25:18.564Z,7.10
2019-05-02T02:27:46.208Z,7.10
2019-05-02T02:30:17.663Z,7.10
2019-05-02T02:32:43.415Z,7.10
2019-05-02T02:35:12.753Z,7.10
2019-05-02T02:37:51.930Z,7.10
2019-05-02T02:40:10.234Z,7.10
2019-05-02T02:42:38.203Z,7.10
2019-05-02T02:45:18.825Z,7.10
2019-05-02T02:47:53.150Z,7.10
2019-05-02T02:50:16.408Z,7.20
2019-05-02T02:52:46.851Z,7.20
2019-05-02T02:55:16.022Z,7.20
2019-05-02T02:57:43.001Z,7.20
2019-05-02T03:00:11.373Z,7.20
2019-05-02T03:02:47.533Z,7.20
2019-05-02T03:05:08.795Z,7.20
2019-05-02T03:07:36.426Z,7.20
2019-05-02T03:10:06.247Z,7.20
2019-05-02T03:12:55.977Z,7.30
2019-05-02T03:15:28.121Z,7.30
2019-05-02T03:17:59.907Z,7.30
2019-05-02T03:20:24.343Z,7.40
2019-05-02T03:22:53.094Z,7.30
2019-05-02T03:25:24.999Z,7.30
2019-05-02T03:27:50.204Z,7.30
2019-05-02T03:30:33.153Z,7.30
2019-05-02T03:33:02.785Z,7.30
2019-05-02T03:35:18.697Z,7.30
2019-05-02T03:37:51.485Z,7.30
2019-05-02T03:40:16.186Z,7.40
2019-05-02T03:42:47.308Z,7.30
2019-05-02T03:45:13.273Z,7.30
2019-05-02T03:47:43.547Z,7.40
2019-05-02T03:50:11.179Z,7.30
2019-05-02T03:52:43.348Z,7.40
2019-05-02T03:55:08.453Z,7.40
2019-05-02T03:57:36.340Z,7.40
2019-05-02T04:00:05.269Z,7.40
2019-05-02T04:02:33.281Z,7.40
2019-05-02T04:05:02.887Z,7.50
2019-05-02T04:07:39.899Z,7.50
2019-05-02T04:10:02.961Z,7.40
2019-05-02T04:12:32.648Z,7.40
2019-05-02T04:15:00.049Z,7.40
2019-05-02T04:17:29.085Z,7.40
2019-05-02T04:19:57.798Z,7.50
2019-05-02T04:22:25.846Z,7.50
2019-05-02T04:24:54.897Z,7.50
2019-05-02T04:27:27.867Z,7.60
2019-05-02T04:29:53.663Z,7.60
2019-05-02T04:32:21.362Z,7.60
2019-05-02T04:34:54.942Z,7.70
2019-05-02T04:37:18.441Z,7.70
2019-05-02T04:39:48.876Z,7.70
2019-05-02T04:42:19.439Z,7.70
2019-05-02T04:45:09.518Z,7.80
2019-05-02T04:47:18.635Z,7.80
2019-05-02T04:49:43.981Z,7.90
2019-05-02T04:52:14.693Z,7.90
2019-05-02T04:54:41.131Z,7.90
2019-05-02T04:57:08.857Z,7.90
2019-05-02T04:59:39.220Z,8.00
2019-05-02T05:02:08.703Z,8.00
2019-05-02T05:04:41.986Z,8.00
2019-05-02T05:07:04.901Z,8.00
2019-05-02T05:09:32.591Z,8.10
2019-05-02T05:12:02.543Z,8.10
2019-05-02T05:14:31.467Z,8.10
2019-05-02T05:16:59.166Z,8.20
2019-05-02T05:19:28.762Z,8.20
2019-05-02T05:22:04.337Z,8.30
2019-05-02T05:24:40.623Z,8.30
2019-05-02T05:27:04.770Z,8.30
2019-05-02T05:29:32.421Z,8.40
2019-05-02T05:32:05.424Z,8.40
2019-05-02T05:34:32.652Z,8.40
2019-05-02T05:37:03.555Z,8.40
2019-05-02T05:39:28.472Z,8.50
2019-05-02T05:41:57.827Z,8.60
2019-05-02T05:44:30.578Z,8.60
2019-05-02T05:46:55.099Z,8.70
2019-05-02T05:49:22.727Z,8.70
2019-05-02T05:51:54.411Z,8.80
2019-05-02T05:54:19.807Z,8.80
2019-05-02T05:56:48.110Z,8.80
2019-05-02T05:59:17.489Z,8.90
2019-05-02T06:01:47.810Z,8.90
2019-05-02T06:04:19.442Z,9.00
2019-05-02T06:06:44.602Z,9.00
2019-05-02T06:09:13.906Z,9.00
2019-05-02T06:11:41.717Z,9.10
2019-05-02T06:14:09.342Z,9.10
2019-05-02T06:16:36.991Z,9.20
2019-05-02T06:19:04.628Z,9.20
2019-05-02T06:21:32.289Z,9.20
2019-05-02T06:23:59.948Z,9.20
2019-05-02T06:26:27.611Z,9.20
2019-05-02T06:28:55.269Z,9.30
2019-05-02T06:31:22.935Z,9.30
2019-05-02T06:33:50.592Z,9.30
2019-05-02T06:36:18.340Z,9.30
2019-05-02T06:38:46.007Z,9.30
2019-05-02T06:41:16.232Z,9.40
2019-05-02T06:43:46.731Z,9.40
2019-05-02T06:46:16.450Z,9.40
2019-05-02T06:48:42.034Z,9.50
2019-05-02T06:51:11.020Z,9.50
2019-05-02T06:53:41.327Z,9.50
2019-05-02T06:56:12.623Z,9.50
2019-05-02T06:58:42.019Z,9.60
2019-05-02T07:01:07.582Z,9.60
2019-05-02T07:03:35.266Z,9.60
2019-05-02T07:06:04.215Z,9.60
2019-05-02T07:08:32.365Z,9.70
2019-05-02T07:11:01.548Z,9.70
2019-05-02T07:13:29.609Z,9.80
2019-05-02T07:16:36.540Z,9.80
2019-05-02T07:18:49.798Z,9.90
2019-05-02T07:21:22.965Z,10.00
2019-05-02T07:23:48.580Z,10.00
2019-05-02T07:26:21.177Z,10.00
2019-05-02T07:28:47.458Z,10.00
2019-05-02T07:31:15.257Z,10.00
2019-05-02T07:33:42.880Z,10.00
2019-05-02T07:36:10.540Z,10.10
2019-05-02T07:38:38.180Z,10.20
2019-05-02T07:41:05.875Z,10.30
2019-05-02T07:43:33.512Z,10.30
2019-05-02T07:46:01.158Z,10.40
2019-05-02T07:48:28.758Z,10.40
2019-05-02T07:50:56.745Z,10.50
2019-05-02T07:53:24.756Z,10.50
2019-05-02T07:55:52.398Z,10.50
2019-05-02T07:58:20.077Z,10.60
2019-05-02T08:00:47.799Z,10.60
2019-05-02T08:03:15.556Z,10.70
2019-05-02T08:05:43.505Z,10.70
2019-05-02T08:08:11.201Z,10.70
2019-05-02T08:10:39.023Z,10.80
2019-05-02T08:13:06.683Z,10.80
2019-05-02T08:15:34.330Z,10.80
2019-05-02T08:18:01.968Z,10.90
2019-05-02T08:20:29.612Z,10.90
2019-05-02T08:22:57.232Z,11.00
2019-05-02T08:25:24.889Z,11.00
2019-05-02T08:28:04.409Z,11.00
2019-05-02T08:30:35.270Z,11.10
2019-05-02T08:33:04.243Z,11.10
2019-05-02T08:35:31.883Z,11.20
2019-05-02T08:37:59.558Z,11.30
2019-05-02T08:40:27.194Z,11.30
2019-05-02T08:42:54.819Z,11.30
2019-05-02T08:45:22.450Z,11.40
2019-05-02T08:47:50.098Z,11.50
2019-05-02T08:50:18.154Z,11.60
2019-05-02T08:52:48.003Z,11.70
2019-05-02T08:55:15.299Z,11.80
2019-05-02T08:57:42.933Z,11.90
2019-05-02T09:00:11.812Z,12.00
2019-05-02T09:02:41.464Z,12.10
2019-05-02T09:05:09.484Z,12.00
2019-05-02T09:07:39.342Z,12.10
2019-05-02T09:10:07.836Z,12.20
2019-05-02T09:12:36.751Z,12.30
2019-05-02T09:15:05.812Z,12.60
2019-05-02T09:17:38.403Z,12.70
2019-05-02T09:20:10.293Z,12.80
2019-05-02T09:22:32.821Z,13.00
2019-05-02T09:25:02.276Z,13.10
2019-05-02T09:27:31.817Z,13.20
2019-05-02T09:29:59.538Z,13.30
2019-05-02T09:32:27.159Z,13.40
2019-05-02T09:34:56.556Z,13.40
2019-05-02T09:37:24.255Z,13.40
2019-05-02T09:39:52.504Z,13.50
2019-05-02T09:42:21.712Z,13.60
2019-05-02T09:44:53.360Z,13.60
2019-05-02T09:47:27.521Z,13.70
2019-05-02T09:50:10.180Z,13.70
2019-05-02T09:52:39.560Z,13.60
2019-05-02T09:55:08.940Z,13.50
2019-05-02T09:57:36.562Z,13.50
2019-05-02T10:00:08.176Z,13.50
2019-05-02T10:02:35.860Z,13.50
2019-05-02T10:05:03.558Z,13.50
2019-05-02T10:07:32.449Z,13.50
2019-05-02T10:10:03.260Z,13.50
2019-05-02T10:12:29.697Z,13.50
2019-05-02T10:14:57.332Z,13.60
2019-05-02T10:17:25.875Z,13.60
2019-05-02T10:19:57.061Z,13.70
2019-05-02T10:22:24.959Z,13.80
2019-05-02T10:24:52.420Z,14.00
2019-05-02T10:27:21.654Z,14.00
2019-05-02T10:29:49.402Z,14.10
2019-05-02T10:32:17.046Z,14.20
2019-05-02T10:34:47.711Z,14.20
2019-05-02T10:37:14.147Z,14.50
2019-05-02T10:39:42.333Z,14.70
2019-05-02T10:42:12.409Z,14.70
2019-05-02T10:44:39.739Z,14.80
2019-05-02T10:47:07.373Z,14.90
2019-05-02T10:49:44.150Z,15.00
2019-05-02T10:52:12.263Z,15.10
2019-05-02T10:54:42.038Z,15.30
2019-05-02T10:57:09.470Z,15.40
2019-05-02T10:59:37.208Z,15.60
2019-05-02T11:02:36.870Z,15.70
2019-05-02T11:05:11.984Z,15.70
2019-05-02T11:07:41.888Z,15.80
2019-05-02T11:10:09.297Z,16.00
2019-05-02T11:12:59.340Z,16.20
2019-05-02T11:15:46.901Z,16.40
2019-05-02T11:18:15.555Z,16.40
2019-05-02T11:20:43.224Z,16.40
2019-05-02T11:23:12.710Z,16.20
2019-05-02T11:25:42.145Z,16.20
2019-05-02T11:28:09.883Z,16.10
2019-05-02T11:30:37.680Z,16.10
2019-05-02T11:33:05.384Z,16.10
2019-05-02T11:35:33.662Z,16.20
2019-05-02T11:38:02.505Z,16.30
2019-05-02T11:40:32.033Z,16.40
2019-05-02T11:43:02.862Z,16.50
2019-05-02T11:45:29.201Z,16.50
2019-05-02T11:48:03.383Z,16.30
2019-05-02T11:50:26.618Z,16.20
2019-05-02T11:52:55.772Z,16.10
2019-05-02T11:55:24.760Z,16.00
2019-05-02T11:57:52.929Z,15.80
2019-05-02T12:00:21.845Z,15.70
2019-05-02T12:02:58.453Z,15.60
2019-05-02T12:05:35.547Z,15.50
2019-05-02T12:08:07.557Z,15.50
2019-05-02T12:10:32.993Z,15.50
2019-05-02T12:12:59.813Z,15.70
2019-05-02T12:15:27.483Z,15.70
2019-05-02T12:17:55.120Z,15.80
2019-05-02T12:20:23.052Z,15.80
2019-05-02T12:22:52.666Z,15.80
2019-05-02T12:25:22.262Z,15.80
2019-05-02T12:27:49.736Z,15.80
2019-05-02T12:30:17.474Z,15.80
2019-05-02T12:32:45.123Z,15.80
2019-05-02T12:35:13.075Z,15.70
2019-05-02T12:37:42.378Z,15.70
2019-05-02T12:40:12.202Z,15.60
2019-05-02T12:42:41.732Z,15.50
2019-05-02T12:45:09.591Z,15.40
2019-05-02T12:47:37.232Z,15.40
2019-05-02T12:50:05.191Z,15.40
2019-05-02T12:52:32.855Z,15.40
2019-05-02T12:55:02.224Z,15.60
2019-05-02T12:57:31.998Z,15.60
2019-05-02T13:00:01.254Z,15.60
2019-05-02T13:02:43.847Z,15.60
2019-05-02T13:05:13.140Z,15.50
2019-05-02T13:07:42.826Z,15.50
2019-05-02T13:10:12.892Z,15.50
2019-05-02T13:12:41.897Z,15.40
2019-05-02T13:15:09.705Z,15.30
2019-05-02T13:17:44.069Z,15.30
2019-05-02T13:20:12.384Z,15.10
2019-05-02T13:23:00.878Z,15.00
2019-05-02T13:25:32.797Z,14.90
2019-05-02T13:27:57.222Z,14.80
2019-05-02T13:30:43.093Z,14.80
2019-05-02T13:33:12.109Z,14.80
2019-05-02T13:35:43.420Z,14.80
2019-05-02T13:38:12.920Z,14.70
2019-05-02T13:40:51.648Z,14.60
2019-05-02T13:43:21.837Z,14.40
2019-05-02T13:46:22.202Z,14.30
2019-05-02T13:48:50.136Z,14.30
2019-05-02T13:51:17.767Z,14.20
2019-05-02T13:53:57.067Z,14.10
2019-05-02T13:56:47.106Z,13.90
2019-05-02T13:59:15.351Z,13.60
2019-05-02T14:01:43.776Z,13.30
2019-05-02T14:04:14.756Z,13.20
2019-05-02T14:06:42.112Z,13.20
2019-05-02T14:09:36.807Z,13.20
2019-05-02T14:12:15.104Z,13.10
2019-05-02T14:14:42.833Z,13.00
2019-05-02T14:17:11.703Z,12.90
2019-05-02T14:19:39.507Z,12.90
2019-05-02T14:22:07.256Z,12.90
2019-05-02T14:24:34.911Z,12.90
2019-05-02T14:27:02.815Z,12.90
2019-05-02T14:29:33.014Z,12.90
2019-05-02T14:32:02.620Z,12.90
2019-05-02T14:34:55.731Z,12.80
2019-05-02T14:37:23.421Z,12.80
2019-05-02T14:39:54.008Z,12.70
2019-05-02T14:42:26.012Z,12.70
2019-05-02T14:45:05.542Z,12.70
2019-05-02T14:47:22.394Z,12.70
2019-05-02T14:49:52.041Z,12.80
2019-05-02T14:52:19.635Z,12.90
2019-05-02T14:54:48.067Z,13.10
2019-05-02T14:57:21.501Z,13.30
2019-05-02T14:59:50.247Z,13.50
2019-05-02T15:02:34.675Z,13.60
2019-05-02T15:05:02.454Z,13.70
2019-05-02T15:07:31.825Z,13.70
2019-05-02T15:10:02.626Z,13.80
2019-05-02T15:12:29.049Z,13.80
2019-05-02T15:14:58.668Z,13.90
2019-05-02T15:17:28.059Z,13.90
2019-05-02T15:20:07.663Z,13.80
2019-05-02T15:22:37.445Z,13.80
2019-05-02T15:25:17.801Z,13.70
2019-05-02T15:27:45.204Z,13.60
2019-05-02T15:30:15.794Z,13.60
2019-05-02T15:32:57.686Z,13.60
2019-05-02T15:35:57.363Z,13.60
2019-05-02T15:38:27.337Z,13.50
2019-05-02T15:40:53.829Z,13.40
2019-05-02T15:43:22.141Z,13.40
2019-05-02T15:45:49.986Z,13.30
2019-05-02T15:48:22.833Z,13.30
2019-05-02T15:50:53.011Z,13.40
2019-05-02T15:53:32.359Z,13.40
2019-05-02T15:56:01.964Z,13.30
2019-05-02T15:58:29.536Z,13.30
2019-05-02T16:01:36.649Z,13.30
2019-05-02T16:04:05.919Z,13.30
2019-05-02T16:06:34.011Z,13.20
2019-05-02T16:09:02.469Z,13.20
2019-05-02T16:11:32.083Z,13.20
2019-05-02T16:13:59.755Z,13.10
2019-05-02T16:16:27.391Z,13.10
2019-05-02T16:18:55.060Z,13.10
2019-05-02T16:21:42.595Z,13.10
2019-05-02T16:24:22.517Z,13.10
2019-05-02T16:26:52.763Z,13.20
2019-05-02T16:29:26.847Z,13.30
2019-05-02T16:32:08.556Z,13.40
2019-05-02T16:34:54.243Z,13.40
2019-05-02T16:37:19.631Z,13.50
2019-05-02T16:39:49.599Z,13.50
2019-05-02T16:42:16.693Z,13.50
2019-05-02T16:44:44.531Z,13.50
2019-05-02T16:47:13.981Z,13.50
2019-05-02T16:49:41.907Z,13.50
2019-05-02T16:52:09.674Z,13.40
2019-05-02T16:54:41.903Z,13.40
2019-05-02T16:57:06.751Z,13.30
2019-05-02T16:59:34.483Z,13.20
2019-05-02T17:02:07.637Z,13.20
2019-05-02T17:04:31.919Z,13.20
2019-05-02T17:07:05.678Z,13.20
2019-05-02T17:09:42.926Z,13.10
2019-05-02T17:12:11.982Z,13.10
2019-05-02T17:14:43.490Z,13.10
2019-05-02T17:17:12.242Z,13.00
2019-05-02T17:19:40.157Z,13.00
2019-05-02T17:22:07.778Z,13.00
2019-05-02T17:24:35.445Z,12.90
2019-05-02T17:27:03.509Z,12.90
2019-05-02T17:29:31.743Z,12.90
2019-05-02T17:31:59.534Z,12.80
2019-05-02T17:34:30.519Z,12.80
2019-05-02T17:36:59.105Z,12.80
2019-05-02T17:39:26.279Z,12.70
2019-05-02T17:41:53.974Z,12.70
2019-05-02T17:44:24.159Z,12.60
2019-05-02T17:46:58.092Z,12.60
2019-05-02T17:49:23.608Z,12.50
2019-05-02T17:52:11.267Z,12.40
2019-05-02T17:54:37.824Z,12.40
2019-05-02T17:57:05.495Z,12.30
2019-05-02T17:59:34.596Z,12.20
2019-05-02T18:02:06.747Z,12.20
2019-05-02T18:04:32.500Z,12.20
2019-05-02T18:07:00.182Z,12.20
2019-05-02T18:09:31.720Z,12.10
2019-05-02T18:11:57.508Z,12.10
2019-05-02T18:14:25.151Z,12.10
2019-05-02T18:16:55.603Z,12.00
2019-05-02T18:19:24.523Z,12.00
2019-05-02T18:21:52.623Z,12.00
2019-05-02T18:24:22.170Z,11.90
2019-05-02T18:26:51.583Z,11.90
2019-05-02T18:29:19.290Z,11.90
2019-05-02T18:31:47.603Z,11.80
2019-05-02T18:34:23.707Z,11.70
2019-05-02T18:36:44.941Z,11.60
2019-05-02T18:39:12.996Z,11.60
2019-05-02T18:41:44.684Z,11.50
2019-05-02T18:44:11.822Z,11.50
2019-05-02T18:46:41.565Z,11.40
2019-05-02T18:49:09.072Z,11.40
2019-05-02T18:51:36.742Z,11.40
2019-05-02T18:54:07.548Z,11.30
2019-05-02T18:56:41.196Z,11.30
2019-05-02T18:59:03.459Z,11.30
2019-05-02T19:01:32.023Z,11.20
2019-05-02T19:04:02.003Z,11.10
2019-05-02T19:06:33.372Z,11.10
2019-05-02T19:09:02.354Z,11.00
2019-05-02T19:11:33.661Z,11.00
2019-05-02T19:13:59.505Z,11.00
2019-05-02T19:16:28.695Z,10.90
2019-05-02T19:18:57.526Z,10.90
2019-05-02T19:21:26.528Z,10.80
2019-05-02T19:23:54.772Z,10.80
2019-05-02T19:26:22.423Z,10.70
2019-05-02T19:29:08.337Z,10.70
2019-05-02T19:31:44.422Z,10.70
2019-05-02T19:34:08.531Z,10.70
2019-05-02T19:36:36.165Z,10.60
2019-05-02T19:39:09.706Z,10.60
2019-05-02T19:41:39.036Z,10.60
2019-05-02T19:44:05.300Z,10.60
2019-05-02T19:46:38.545Z,10.50
2019-05-02T19:49:06.911Z,10.50
2019-05-02T19:51:31.970Z,10.40
2019-05-02T19:54:01.776Z,10.40
2019-05-02T19:56:34.871Z,10.40
2019-05-02T19:58:58.673Z,10.30
2019-05-02T20:01:26.622Z,10.30
2019-05-02T20:03:56.773Z,10.30
2019-05-02T20:06:23.774Z,10.20
2019-05-02T20:08:52.529Z,10.20
2019-05-02T20:11:21.933Z,10.20
2019-05-02T20:13:49.711Z,10.10
2019-05-02T20:16:45.776Z,10.10
2019-05-02T20:19:17.397Z,10.00
2019-05-02T20:22:02.821Z,9.90
2019-05-02T20:24:55.547Z,9.80
2019-05-02T20:27:22.457Z,9.70
2019-05-02T20:29:52.174Z,9.60
2019-05-02T20:32:21.920Z,9.40
2019-05-02T20:34:49.427Z,9.40
2019-05-02T20:37:17.151Z,9.30
2019-05-02T20:39:44.783Z,8.20
2019-05-02T20:42:12.454Z,9.10
2019-05-02T20:44:41.738Z,9.00
2019-05-02T20:47:13.938Z,9.00
2019-05-02T20:49:42.678Z,8.90
2019-05-02T20:52:11.913Z,8.80
2019-05-02T20:54:39.754Z,8.70
2019-05-02T20:57:07.382Z,8.60
2019-05-02T20:59:35.334Z,8.60
2019-05-02T21:02:03.022Z,8.50
2019-05-02T21:04:31.846Z,8.40
2019-05-02T21:07:19.338Z,8.40
2019-05-02T21:10:15.202Z,8.30
2019-05-02T21:12:42.843Z,8.20
2019-05-02T21:15:12.338Z,8.20
2019-05-02T21:17:42.101Z,8.10
2019-05-02T21:20:09.738Z,8.00
2019-05-02T21:22:37.433Z,8.00
2019-05-02T21:25:05.511Z,7.90
2019-05-02T21:27:33.204Z,7.90
2019-05-02T21:30:00.853Z,7.90
2019-05-02T21:32:28.538Z,7.80
2019-05-02T21:34:56.181Z,7.80
2019-05-02T21:37:23.824Z,7.80
2019-05-02T21:39:52.061Z,7.90
2019-05-02T21:42:20.053Z,7.90
2019-05-02T21:44:47.777Z,7.90
2019-05-02T21:47:15.416Z,7.90
2019-05-02T21:50:02.581Z,7.90
2019-05-02T21:52:49.723Z,8.00
2019-05-02T21:55:25.052Z,8.00
2019-05-02T21:57:52.702Z,8.00
2019-05-02T22:00:42.438Z,8.10
2019-05-02T22:03:12.506Z,8.10
2019-05-02T22:05:39.963Z,8.10
2019-05-02T22:08:07.599Z,8.10
2019-05-02T22:10:35.284Z,8.10
2019-05-02T22:13:02.925Z,8.10
2019-05-02T22:15:32.408Z,8.10
2019-05-02T22:18:01.617Z,8.10
2019-05-02T22:20:29.431Z,8.10
2019-05-02T22:22:57.116Z,8.10
2019-05-02T22:25:24.858Z,8.10
2019-05-02T22:27:54.095Z,8.10
2019-05-02T22:30:21.991Z,8.20
2019-05-02T22:32:51.685Z,8.10
2019-05-02T22:35:19.315Z,8.10
2019-05-02T22:37:49.177Z,8.20
2019-05-02T22:40:17.149Z,8.20
2019-05-02T22:42:44.812Z,8.10
2019-05-02T22:45:12.776Z,8.10
2019-05-02T22:47:42.502Z,8.10
2019-05-02T22:50:10.082Z,8.10
2019-05-02T22:52:37.747Z,8.10
2019-05-02T22:55:05.392Z,8.10
2019-05-02T22:57:33.090Z,8.10
2019-05-02T23:00:01.934Z,8.10
2019-05-02T23:02:29.824Z,8.10
2019-05-02T23:04:57.515Z,8.10
2019-05-02T23:07:25.138Z,8.20
2019-05-02T23:09:52.897Z,8.10
2019-05-02T23:12:24.628Z,8.00
2019-05-02T23:14:50.017Z,8.00
2019-05-02T23:17:17.635Z,8.00
2019-05-02T23:19:45.325Z,8.00
2019-05-02T23:22:12.992Z,8.00
2019-05-02T23:25:02.983Z,7.90
2019-05-02T23:27:46.765Z,7.90
2019-05-02T23:30:16.703Z,7.90
2019-05-02T23:32:44.357Z,7.90
2019-05-02T23:35:12.204Z,7.90
2019-05-02T23:37:41.807Z,7.90
2019-05-02T23:40:12.359Z,7.80
2019-05-02T23:42:41.599Z,7.90
2019-05-02T23:45:09.653Z,7.90
2019-05-02T23:47:37.322Z,7.80
2019-05-02T23:50:05.392Z,7.80
2019-05-02T23:52:33.061Z,7.80
2019-05-02T23:55:02.807Z,7.80
2019-05-02T23:57:31.998Z,7.80
2019-05-02T23:59:59.592Z,7.70
